Time;durP1;ratioP1;P1;durP2;ratioP2;P2;SDS_P1;SDS_P2;PMS_P1;PMS_P2;Temp;Humidity;BMP_temperature;BMP_pressure;BME280_temperature;BME280_humidity;BME280_pressure;Samples;Min_cycle;Max_cycle;Signal;HPM_P1;HPM_P2
2024/01/24 00:00:25;;;;;;;;;;;;;;;19.01;55.88;100228.56;2087328;28;20428;-70
2024/01/24 00:01:26;;;;;;;;;;;;;;;19.02;56.26;100221.31;2086706;28;20518;-71
2024/01/24 00:02:27;;;;;;;;;;;;;;;19.01;56.29;100211.59;2087008;28;20023;-70
2024/01/24 00:03:28;;;;;;;;;;;;;;;19.02;56.30;100208.72;2092992;28;19924;-70
2024/01/24 00:04:30;;;;;;;;;;;;;;;19.02;56.02;100202.50;2088795;28;19978;-70
2024/01/24 00:05:30;;;;;;;;;;;;;;;19.01;56.28;100201.66;2091734;28;19928;-71
2024/01/24 00:06:32;;;;;;;;;;;;;;;19.02;56.23;100205.19;2088083;28;19975;-71
2024/01/24 00:07:32;;;;;;;;;;;;;;;19.02;56.25;100202.50;2089987;28;20013;-70
2024/01/24 00:08:34;;;;;;;;;;;;;;;19.02;56.08;100194.44;2088628;28;19933;-71
2024/01/24 00:09:35;;;;;;;;;;;;;;;19.01;56.14;100195.44;2089945;28;20384;-70
2024/01/24 00:10:37;;;;;;;;;;;;;;;19.01;56.33;100198.97;2085385;28;19935;-70
2024/01/24 00:11:39;;;;;;;;;;;;;;;19.02;56.17;100199.81;2090305;28;19940;-70
2024/01/24 00:12:39;;;;;;;;;;;;;;;18.99;55.95;100198.28;2085912;28;19933;-69
2024/01/24 00:13:41;;;;;;;;;;;;;;;19.00;56.08;100215.25;2089191;28;20020;-70
2024/01/24 00:14:41;;;;;;;;;;;;;;;19.00;56.41;100210.75;2091656;28;19928;-71
2024/01/24 00:15:43;;;;;;;;;;;;;;;18.99;55.94;100219.81;2091183;28;20392;-71
2024/01/24 00:16:44;;;;;;;;;;;;;;;18.99;56.07;100219.81;2089466;28;20415;-71
2024/01/24 00:17:45;;;;;;;;;;;;;;;18.96;56.19;100223.66;2087536;28;19928;-70
2024/01/24 00:18:46;;;;;;;;;;;;;;;18.97;56.24;100211.06;2088445;28;21369;-70
2024/01/24 00:19:47;;;;;;;;;;;;;;;18.96;56.22;100212.91;2087342;28;19983;-70
2024/01/24 00:20:48;;;;;;;;;;;;;;;18.95;55.87;100213.94;2086521;28;20003;-71
2024/01/24 00:21:50;;;;;;;;;;;;;;;18.95;56.19;100208.56;2089363;28;20417;-70
2024/01/24 00:22:51;;;;;;;;;;;;;;;18.94;56.13;100212.25;2085590;28;19931;-71
2024/01/24 00:23:51;;;;;;;;;;;;;;;18.93;56.13;100215.09;2088902;28;20028;-70
2024/01/24 00:24:53;;;;;;;;;;;;;;;18.94;56.17;100224.84;2087470;28;20012;-71
2024/01/24 00:25:55;;;;;;;;;;;;;;;18.93;56.01;100218.63;2087794;28;19932;-71
2024/01/24 00:26:55;;;;;;;;;;;;;;;18.92;56.28;100230.41;2088458;28;19936;-71
2024/01/24 00:27:57;;;;;;;;;;;;;;;18.92;56.05;100224.19;2089563;28;19924;-70
2024/01/24 00:28:57;;;;;;;;;;;;;;;18.91;56.20;100225.16;2087251;28;20400;-70
2024/01/24 00:29:59;;;;;;;;;;;;;;;18.90;56.15;100229.72;2089180;28;20007;-71
2024/01/24 00:31:00;;;;;;;;;;;;;;;18.90;56.35;100231.56;2086824;28;20728;-70
2024/01/24 00:32:01;;;;;;;;;;;;;;;18.90;55.94;100231.56;2086119;28;20023;-71
2024/01/24 00:33:04;;;;;;;;;;;;;;;18.90;56.13;100234.25;2089253;28;19928;-71
2024/01/24 00:34:06;;;;;;;;;;;;;;;18.89;56.15;100235.28;2090554;28;20027;-71
2024/01/24 00:35:07;;;;;;;;;;;;;;;18.88;56.31;100236.25;2080187;28;20404;-71
2024/01/24 00:36:08;;;;;;;;;;;;;;;18.87;56.13;100235.44;2084779;28;19929;-71
2024/01/24 00:37:09;;;;;;;;;;;;;;;18.86;56.38;100228.38;2087479;28;19929;-70
2024/01/24 00:38:10;;;;;;;;;;;;;;;18.85;56.36;100234.75;2088702;28;19979;-70
2024/01/24 00:39:13;;;;;;;;;;;;;;;18.86;56.09;100240.97;2087844;28;19928;-71
2024/01/24 00:40:14;;;;;;;;;;;;;;;18.85;56.22;100236.59;2090033;28;20712;-70
2024/01/24 00:41:16;;;;;;;;;;;;;;;18.82;56.11;100235.06;2087749;28;19956;-71
2024/01/24 00:42:18;;;;;;;;;;;;;;;18.82;56.42;100235.06;2091000;28;20392;-71
2024/01/24 00:43:19;;;;;;;;;;;;;;;18.82;56.04;100231.56;2087670;28;19932;-71
2024/01/24 00:44:21;;;;;;;;;;;;;;;18.81;56.13;100238.78;2085845;28;20486;-70
2024/01/24 00:45:21;;;;;;;;;;;;;;;18.80;56.13;100234.41;2088737;28;20546;-71
2024/01/24 00:46:23;;;;;;;;;;;;;;;18.79;56.24;100232.72;2088652;28;19932;-71
2024/01/24 00:47:23;;;;;;;;;;;;;;;18.80;56.02;100231.72;2088881;28;19928;-71
2024/01/24 00:48:25;;;;;;;;;;;;;;;18.80;56.34;100238.94;2084968;28;20380;-71
2024/01/24 00:49:26;;;;;;;;;;;;;;;18.76;56.25;100227.69;2086599;28;19932;-71
2024/01/24 00:50:28;;;;;;;;;;;;;;;18.77;56.42;100237.41;2084431;28;19986;-71
2024/01/24 00:51:29;;;;;;;;;;;;;;;18.76;56.20;100235.75;2087654;28;20296;-70
2024/01/24 00:52:29;;;;;;;;;;;;;;;18.73;56.20;100236.88;2090085;28;19976;-70
2024/01/24 00:53:34;;;;;;;;;;;;;;;18.74;56.17;100243.13;2088718;28;19929;-71
2024/01/24 00:54:34;;;;;;;;;;;;;;;18.72;56.13;100237.03;2086802;28;19939;-70
2024/01/24 00:55:36;;;;;;;;;;;;;;;18.71;56.55;100246.13;2090689;28;20020;-70
2024/01/24 00:56:38;;;;;;;;;;;;;;;18.70;56.24;100247.13;2086973;28;19936;-71
2024/01/24 00:57:39;;;;;;;;;;;;;;;18.70;56.39;100239.06;2089645;28;19928;-70
2024/01/24 00:58:40;;;;;;;;;;;;;;;18.69;56.25;100240.06;2085652;28;19936;-70
2024/01/24 00:59:41;;;;;;;;;;;;;;;18.67;56.35;100239.41;2083573;28;20055;-70
2024/01/24 01:00:42;;;;;;;;;;;;;;;18.68;56.26;100235.69;2087184;28;20274;-70
2024/01/24 01:01:44;;;;;;;;;;;;;;;18.65;56.50;100231.50;2087148;28;19998;-70
2024/01/24 01:02:44;;;;;;;;;;;;;;;18.66;56.20;100232.31;2088065;28;20465;-70
2024/01/24 01:03:46;;;;;;;;;;;;;;;18.65;56.41;100225.28;2088387;28;19928;-71
2024/01/24 01:04:46;;;;;;;;;;;;;;;18.63;56.37;100225.44;2087018;28;19985;-71
2024/01/24 01:05:48;;;;;;;;;;;;;;;18.63;56.32;100228.13;2084967;28;20038;-71
2024/01/24 01:06:49;;;;;;;;;;;;;;;18.63;56.46;100229.97;2088980;28;20615;-71
2024/01/24 01:07:50;;;;;;;;;;;;;;;18.62;56.52;100222.94;2085911;28;19933;-70
2024/01/24 01:08:51;;;;;;;;;;;;;;;18.62;56.69;100222.94;2090049;28;20425;-70
2024/01/24 01:09:52;;;;;;;;;;;;;;;18.60;56.85;100224.94;2086051;28;19967;-71
2024/01/24 01:10:53;;;;;;;;;;;;;;;18.61;56.58;100223.91;2084119;28;20413;-71
2024/01/24 01:11:56;;;;;;;;;;;;;;;18.59;56.46;100228.63;2090173;28;20038;-70
2024/01/24 01:12:57;;;;;;;;;;;;;;;18.58;56.53;100225.09;2088599;28;20391;-71
2024/01/24 01:13:58;;;;;;;;;;;;;;;18.58;56.64;100217.03;2084736;28;20027;-71
2024/01/24 01:14:59;;;;;;;;;;;;;;;18.54;56.58;100216.53;2083980;28;20797;-71
2024/01/24 01:16:00;;;;;;;;;;;;;;;18.53;56.66;100208.66;2088523;28;19977;-71
2024/01/24 01:17:01;;;;;;;;;;;;;;;18.52;56.57;100213.16;2087031;28;19929;-71
2024/01/24 01:18:03;;;;;;;;;;;;;;;18.51;56.43;100214.16;2085330;28;20419;-70
2024/01/24 01:19:03;;;;;;;;;;;;;;;18.53;56.31;100227.44;2084450;28;19960;-71
2024/01/24 01:20:04;;;;;;;;;;;;;;;18.47;56.50;100220.88;2089401;28;19967;-70
2024/01/24 01:21:06;;;;;;;;;;;;;;;18.48;56.84;100217.19;2087401;28;20058;-70
2024/01/24 01:22:07;;;;;;;;;;;;;;;18.46;56.72;100219.19;2087762;28;19928;-71
2024/01/24 01:23:09;;;;;;;;;;;;;;;18.44;56.59;100218.53;2087864;28;19964;-71
2024/01/24 01:24:09;;;;;;;;;;;;;;;18.47;56.45;100214.66;2085723;28;20046;-71
2024/01/24 01:25:11;;;;;;;;;;;;;;;18.44;56.58;100209.59;2089006;28;20414;-70
2024/01/24 01:26:11;;;;;;;;;;;;;;;18.43;56.71;100216.84;2078618;28;19939;-70
2024/01/24 01:27:14;;;;;;;;;;;;;;;18.45;56.56;100216.69;2085509;28;20019;-70
2024/01/24 01:28:15;;;;;;;;;;;;;;;18.43;56.55;100216.00;2088464;28;19929;-70
2024/01/24 01:29:17;;;;;;;;;;;;;;;18.43;56.50;100213.31;2086970;28;19976;-70
2024/01/24 01:30:17;;;;;;;;;;;;;;;18.43;56.25;100208.78;2087690;28;19924;-71
2024/01/24 01:31:19;;;;;;;;;;;;;;;18.43;56.75;100219.50;2085082;28;20028;-70
2024/01/24 01:32:20;;;;;;;;;;;;;;;18.41;56.54;100216.16;2088927;28;20657;-71
2024/01/24 01:33:21;;;;;;;;;;;;;;;18.40;56.59;100217.16;2088445;28;19929;-70
2024/01/24 01:34:22;;;;;;;;;;;;;;;18.37;56.74;100214.81;2087064;28;19928;-71
2024/01/24 01:35:24;;;;;;;;;;;;;;;18.38;56.62;100208.41;2089741;28;20731;-70
2024/01/24 01:36:24;;;;;;;;;;;;;;;18.38;56.57;100211.09;2082027;28;19933;-70
2024/01/24 01:37:26;;;;;;;;;;;;;;;18.34;56.80;100207.06;2088326;28;20689;-70
2024/01/24 01:38:27;;;;;;;;;;;;;;;18.36;56.60;100209.59;2087113;28;19925;-71
2024/01/24 01:39:29;;;;;;;;;;;;;;;18.35;56.67;100206.06;2087427;28;19957;-71
2024/01/24 01:40:30;;;;;;;;;;;;;;;18.33;56.49;100202.72;2085429;28;19939;-70
2024/01/24 01:41:31;;;;;;;;;;;;;;;18.34;56.62;100201.72;2086655;28;19929;-71
2024/01/24 01:42:33;;;;;;;;;;;;;;;18.33;56.73;100196.47;2088881;28;19931;-71
2024/01/24 01:43:35;;;;;;;;;;;;;;;18.32;56.31;100195.66;2088111;28;19972;-70
2024/01/24 01:44:41;;;;;;;;;;;;;;;18.31;56.47;100191.28;2086721;28;20315;-70
2024/01/24 01:45:43;;;;;;;;;;;;;;;18.28;56.69;100197.00;2090006;28;20322;-70
2024/01/24 01:46:44;;;;;;;;;;;;;;;18.28;56.54;100194.31;2089641;28;19932;-70
2024/01/24 01:47:47;;;;;;;;;;;;;;;18.29;56.73;100191.44;2086127;28;19924;-70
2024/01/24 01:48:49;;;;;;;;;;;;;;;18.27;56.54;100192.59;2085892;28;20387;-70
2024/01/24 01:49:50;;;;;;;;;;;;;;;18.26;56.83;100190.94;2088855;28;19968;-70
2024/01/24 01:50:51;;;;;;;;;;;;;;;18.28;56.68;100188.94;2085358;28;19929;-70
2024/01/24 01:51:52;;;;;;;;;;;;;;;18.24;56.45;100184.88;2084604;28;20319;-70
2024/01/24 01:52:54;;;;;;;;;;;;;;;18.22;56.77;100181.50;2086119;28;20011;-70
2024/01/24 01:53:55;;;;;;;;;;;;;;;18.25;56.92;100186.59;2085889;28;19981;-71
2024/01/24 01:54:56;;;;;;;;;;;;;;;18.24;56.63;100182.19;2087677;28;20005;-70
2024/01/24 01:55:57;;;;;;;;;;;;;;;18.20;56.66;100176.31;2086288;28;19935;-70
2024/01/24 01:56:59;;;;;;;;;;;;;;;18.21;56.56;100174.47;2085355;28;20985;-70
2024/01/24 01:58:01;;;;;;;;;;;;;;;18.21;56.74;100174.47;2083183;28;19929;-70
2024/01/24 01:59:03;;;;;;;;;;;;;;;18.17;56.76;100173.13;2087519;28;20297;-70
2024/01/24 02:00:05;;;;;;;;;;;;;;;18.17;56.87;100165.91;2086429;28;20627;-70
2024/01/24 02:01:08;;;;;;;;;;;;;;;18.18;56.95;100166.75;2085332;28;20477;-69
2024/01/24 02:02:10;;;;;;;;;;;;;;;18.16;56.85;100158.84;2088668;28;19925;-70
2024/01/24 02:03:11;;;;;;;;;;;;;;;18.12;56.76;100156.66;2086922;28;20328;-70
2024/01/24 02:04:12;;;;;;;;;;;;;;;18.11;57.05;100158.50;2087868;28;20299;-69
2024/01/24 02:05:14;;;;;;;;;;;;;;;18.12;56.74;100162.88;2085127;28;19968;-70
2024/01/24 02:06:15;;;;;;;;;;;;;;;18.10;56.83;100148.75;2087592;28;19973;-70
2024/01/24 02:07:16;;;;;;;;;;;;;;;18.08;56.95;100154.31;2087546;28;20077;-70
2024/01/24 02:08:17;;;;;;;;;;;;;;;18.09;56.76;100161.34;2089187;28;19939;-70
2024/01/24 02:09:18;;;;;;;;;;;;;;;18.09;56.83;100161.34;2086323;28;19968;-69
2024/01/24 02:10:19;;;;;;;;;;;;;;;18.09;56.91;100163.19;2090582;28;20471;-70
2024/01/24 02:11:20;;;;;;;;;;;;;;;18.07;57.04;100160.66;2086862;28;20564;-70
2024/01/24 02:12:22;;;;;;;;;;;;;;;18.07;56.87;100166.03;2088388;28;19971;-70
2024/01/24 02:13:27;;;;;;;;;;;;;;;18.06;56.93;100167.03;2085320;28;20402;-69
2024/01/24 02:14:29;;;;;;;;;;;;;;;18.07;56.77;100160.66;2088180;28;20028;-70
2024/01/24 02:15:31;;;;;;;;;;;;;;;18.06;56.77;100152.78;2086753;28;19943;-70
2024/01/24 02:16:33;;;;;;;;;;;;;;;18.05;56.93;100157.31;2085895;28;19929;-70
2024/01/24 02:17:33;;;;;;;;;;;;;;;18.02;56.85;100157.63;2087377;28;20464;-70
2024/01/24 02:18:34;;;;;;;;;;;;;;;18.03;57.12;100156.63;2086636;28;19978;-70
2024/01/24 02:19:36;;;;;;;;;;;;;;;18.02;56.88;100163.00;2090217;28;20571;-70
2024/01/24 02:20:37;;;;;;;;;;;;;;;18.02;57.06;100165.66;2088961;28;20402;-70
2024/01/24 02:21:38;;;;;;;;;;;;;;;18.02;56.98;100168.34;2085069;28;20017;-71
2024/01/24 02:22:39;;;;;;;;;;;;;;;17.99;57.10;100171.38;2088987;28;19932;-70
2024/01/24 02:23:41;;;;;;;;;;;;;;;17.98;57.02;100172.38;2089008;28;20403;-70
2024/01/24 02:24:43;;;;;;;;;;;;;;;18.00;57.08;100180.28;2090953;28;19939;-70
2024/01/24 02:25:45;;;;;;;;;;;;;;;17.98;56.92;100171.56;2085789;28;19940;-70
2024/01/24 02:26:45;;;;;;;;;;;;;;;17.98;57.08;100175.06;2090318;28;19935;-70
2024/01/24 02:27:47;;;;;;;;;;;;;;;17.95;56.88;100172.72;2085911;28;20451;-70
2024/01/24 02:28:47;;;;;;;;;;;;;;;17.94;56.98;100172.84;2087437;28;20544;-70
2024/01/24 02:29:49;;;;;;;;;;;;;;;17.93;57.08;100163.13;2088241;28;20011;-70
2024/01/24 02:30:50;;;;;;;;;;;;;;;17.89;57.30;100168.00;2087550;28;19925;-70
2024/01/24 02:31:51;;;;;;;;;;;;;;;17.88;57.02;100165.47;2087735;28;21405;-70
2024/01/24 02:32:52;;;;;;;;;;;;;;;17.83;57.35;100172.16;2087838;28;19940;-70
2024/01/24 02:33:53;;;;;;;;;;;;;;;17.83;57.35;100168.66;2086012;28;20400;-69
2024/01/24 02:34:54;;;;;;;;;;;;;;;17.83;57.08;100163.28;2089427;28;19932;-70
2024/01/24 02:35:56;;;;;;;;;;;;;;;17.82;57.18;100156.22;2087634;28;20373;-70
2024/01/24 02:36:56;;;;;;;;;;;;;;;17.84;57.24;100156.91;2086104;28;19924;-70
2024/01/24 02:37:58;;;;;;;;;;;;;;;17.85;57.19;100164.78;2088367;28;19963;-71
2024/01/24 02:38:58;;;;;;;;;;;;;;;17.88;57.05;100170.81;2088356;28;20719;-70
2024/01/24 02:40:02;;;;;;;;;;;;;;;17.84;57.18;100165.78;2088682;28;19959;-69
2024/01/24 02:41:02;;;;;;;;;;;;;;;17.82;57.01;100175.00;2087738;28;19967;-70
2024/01/24 02:42:04;;;;;;;;;;;;;;;17.81;57.20;100165.28;2083792;28;20204;-70
2024/01/24 02:43:05;;;;;;;;;;;;;;;17.81;57.34;100165.28;2085896;28;19963;-70
2024/01/24 02:44:07;;;;;;;;;;;;;;;17.82;56.98;100157.03;2087746;28;19924;-69
2024/01/24 02:45:07;;;;;;;;;;;;;;;17.80;57.11;100164.44;2088696;28;19935;-70
2024/01/24 02:46:10;;;;;;;;;;;;;;;17.78;57.04;100166.44;2089752;28;19929;-70
2024/01/24 02:47:11;;;;;;;;;;;;;;;17.80;57.08;100160.88;2089375;28;20487;-69
2024/01/24 02:48:13;;;;;;;;;;;;;;;17.76;57.29;100154.97;2088965;28;19928;-70
2024/01/24 02:49:13;;;;;;;;;;;;;;;17.78;57.24;100157.50;2088083;28;19924;-70
2024/01/24 02:50:16;;;;;;;;;;;;;;;17.79;56.74;100161.91;2087353;28;20003;-70
2024/01/24 02:51:22;;;;;;;;;;;;;;;17.79;57.20;100156.53;2087068;28;19933;-70
2024/01/24 02:52:24;;;;;;;;;;;;;;;17.77;57.12;100159.34;2086721;28;19932;-70
2024/01/24 02:53:25;;;;;;;;;;;;;;;17.78;56.83;100154.84;2086857;28;19933;-70
2024/01/24 02:54:26;;;;;;;;;;;;;;;17.73;57.06;100162.53;2084308;28;20050;-70
2024/01/24 02:55:29;;;;;;;;;;;;;;;17.73;57.27;100165.19;2085311;28;19940;-70
2024/01/24 02:56:31;;;;;;;;;;;;;;;17.74;56.96;100166.88;2087038;28;20036;-70
2024/01/24 02:57:31;;;;;;;;;;;;;;;17.73;57.00;100168.72;2088653;28;19936;-70
2024/01/24 02:58:33;;;;;;;;;;;;;;;17.72;57.05;100172.41;2087582;28;19929;-70
2024/01/24 02:59:34;;;;;;;;;;;;;;;17.71;57.28;100169.88;2086663;28;19936;-70
2024/01/24 03:00:35;;;;;;;;;;;;;;;17.71;57.25;100167.19;2086217;28;20454;-70
2024/01/24 03:01:36;;;;;;;;;;;;;;;17.70;57.22;100161.00;2087700;28;19929;-70
2024/01/24 03:02:36;;;;;;;;;;;;;;;17.69;57.10;100172.75;2089337;28;19967;-70
2024/01/24 03:03:39;;;;;;;;;;;;;;;17.68;57.15;100162.16;2083670;28;22240;-70
2024/01/24 03:04:39;;;;;;;;;;;;;;;17.66;57.29;100156.94;2086067;28;19928;-70
2024/01/24 03:05:41;;;;;;;;;;;;;;;17.68;57.17;100157.63;2088545;28;19980;-70
2024/01/24 03:06:42;;;;;;;;;;;;;;;17.70;57.02;100168.22;2085962;28;19936;-69
2024/01/24 03:07:43;;;;;;;;;;;;;;;17.69;56.99;100164.69;2087184;28;20367;-69
2024/01/24 03:08:48;;;;;;;;;;;;;;;17.70;57.08;100158.31;2086318;28;20643;-70
2024/01/24 03:09:49;;;;;;;;;;;;;;;17.68;57.08;100146.88;2079233;28;19933;-70
2024/01/24 03:10:51;;;;;;;;;;;;;;;17.69;57.06;100145.03;2083595;28;19932;-70
2024/01/24 03:11:52;;;;;;;;;;;;;;;17.71;56.98;100143.03;2084899;28;19924;-70
2024/01/24 03:12:54;;;;;;;;;;;;;;;17.69;56.82;100145.03;2090272;28;19935;-70
2024/01/24 03:13:54;;;;;;;;;;;;;;;17.65;57.03;100145.38;2088643;28;20487;-69
2024/01/24 03:14:55;;;;;;;;;;;;;;;17.64;57.16;100145.53;2087583;28;19974;-69
2024/01/24 03:15:56;;;;;;;;;;;;;;;17.63;57.25;100147.41;2088120;28;20490;-70
2024/01/24 03:16:57;;;;;;;;;;;;;;;17.65;57.04;100148.06;2088331;28;20031;-70
2024/01/24 03:17:59;;;;;;;;;;;;;;;17.64;57.11;100154.44;2087240;28;20730;-70
2024/01/24 03:18:59;;;;;;;;;;;;;;;17.67;56.88;100153.28;2084522;28;19935;-69
2024/01/24 03:20:01;;;;;;;;;;;;;;;17.66;56.95;100156.94;2087069;28;20011;-70
2024/01/24 03:21:01;;;;;;;;;;;;;;;17.64;57.09;100162.47;2085939;28;19933;-69
2024/01/24 03:22:03;;;;;;;;;;;;;;;17.65;56.84;100158.78;2078938;28;20601;-70
2024/01/24 03:23:04;;;;;;;;;;;;;;;17.66;57.01;100151.56;2085353;28;20520;-70
2024/01/24 03:24:06;;;;;;;;;;;;;;;17.66;56.67;100151.56;2089104;28;19925;-69
2024/01/24 03:25:07;;;;;;;;;;;;;;;17.62;56.91;100150.22;2086988;28;19964;-70
2024/01/24 03:26:09;;;;;;;;;;;;;;;17.60;57.01;100153.06;2088857;28;20622;-70
2024/01/24 03:27:11;;;;;;;;;;;;;;;17.62;56.88;100159.09;2090232;28;19972;-69
2024/01/24 03:28:11;;;;;;;;;;;;;;;17.58;57.09;100155.06;2090315;28;19928;-69
2024/01/24 03:29:13;;;;;;;;;;;;;;;17.59;56.97;100148.69;2088536;28;19932;-70
2024/01/24 03:30:14;;;;;;;;;;;;;;;17.60;56.77;100142.31;2089500;28;20295;-69
2024/01/24 03:31:15;;;;;;;;;;;;;;;17.58;56.85;100138.97;2085967;28;19972;-68
2024/01/24 03:32:18;;;;;;;;;;;;;;;17.59;56.93;100135.28;2089248;28;19925;-70
2024/01/24 03:33:20;;;;;;;;;;;;;;;17.58;57.05;100133.63;2087932;28;19928;-69
2024/01/24 03:34:20;;;;;;;;;;;;;;;17.59;56.73;100148.69;2088562;28;20577;-70
2024/01/24 03:35:22;;;;;;;;;;;;;;;17.54;57.14;100142.97;2089024;28;19967;-70
2024/01/24 03:36:23;;;;;;;;;;;;;;;17.53;56.88;100152.03;2088927;28;19925;-70
2024/01/24 03:37:24;;;;;;;;;;;;;;;17.55;56.92;100139.31;2085117;28;19931;-70
2024/01/24 03:38:25;;;;;;;;;;;;;;;17.54;57.01;100150.19;2089981;28;20410;-70
2024/01/24 03:39:27;;;;;;;;;;;;;;;17.50;57.10;100146.16;2087785;28;19971;-70
2024/01/24 03:40:27;;;;;;;;;;;;;;;17.51;57.05;100151.34;2088212;28;19929;-70
2024/01/24 03:41:29;;;;;;;;;;;;;;;17.51;56.83;100154.03;2089658;28;19960;-70
2024/01/24 03:42:32;;;;;;;;;;;;;;;17.52;56.87;100147.66;2087725;28;19928;-69
2024/01/24 03:43:32;;;;;;;;;;;;;;;17.48;56.97;100146.28;2089167;28;20053;-69
2024/01/24 03:44:34;;;;;;;;;;;;;;;17.49;56.98;100145.28;2088891;28;20837;-70
2024/01/24 03:45:35;;;;;;;;;;;;;;;17.49;56.93;100142.59;2089829;28;20564;-70
2024/01/24 03:46:37;;;;;;;;;;;;;;;17.49;56.95;100137.22;2087078;28;19929;-71
2024/01/24 03:47:38;;;;;;;;;;;;;;;17.49;56.88;100133.72;2089319;28;19928;-70
2024/01/24 03:48:39;;;;;;;;;;;;;;;17.45;56.93;100133.22;2089280;28;20008;-71
2024/01/24 03:49:40;;;;;;;;;;;;;;;17.46;56.97;100137.56;2088407;28;19951;-70
2024/01/24 03:50:41;;;;;;;;;;;;;;;17.50;56.91;100141.63;2088486;28;20016;-70
2024/01/24 03:51:43;;;;;;;;;;;;;;;17.46;56.92;100145.59;2087662;28;19972;-68
2024/01/24 03:52:43;;;;;;;;;;;;;;;17.49;56.88;100161.38;2085448;28;20808;-70
2024/01/24 03:53:45;;;;;;;;;;;;;;;17.46;57.02;100150.13;2085661;28;19998;-70
2024/01/24 03:54:45;;;;;;;;;;;;;;;17.45;57.07;100159.19;2090122;28;19928;-70
2024/01/24 03:55:47;;;;;;;;;;;;;;;17.41;57.07;100156.84;2087219;28;20024;-70
2024/01/24 03:56:49;;;;;;;;;;;;;;;17.43;57.05;100152.13;2090375;28;19933;-70
2024/01/24 03:57:49;;;;;;;;;;;;;;;17.43;56.85;100152.13;2088011;28;19928;-70
2024/01/24 03:58:51;;;;;;;;;;;;;;;17.41;56.99;100142.56;2087257;28;20465;-71
2024/01/24 03:59:51;;;;;;;;;;;;;;;17.39;56.91;100147.25;2089677;28;20410;-70
2024/01/24 04:00:55;;;;;;;;;;;;;;;17.40;57.10;100154.28;2088323;28;19931;-71
2024/01/24 04:01:56;;;;;;;;;;;;;;;17.39;57.02;100152.63;2089982;28;20285;-70
2024/01/24 04:02:57;;;;;;;;;;;;;;;17.39;57.19;100153.47;2089570;28;19925;-70
2024/01/24 04:03:58;;;;;;;;;;;;;;;17.40;56.92;100152.44;2086959;28;19964;-70
2024/01/24 04:04:59;;;;;;;;;;;;;;;17.40;57.15;100155.13;2087240;28;19941;-70
2024/01/24 04:06:00;;;;;;;;;;;;;;;17.38;56.91;100153.59;2090411;28;20765;-70
2024/01/24 04:07:02;;;;;;;;;;;;;;;17.38;56.90;100149.09;2088268;28;19979;-70
2024/01/24 04:08:02;;;;;;;;;;;;;;;17.37;57.06;100138.53;2087227;28;19940;-70
2024/01/24 04:09:04;;;;;;;;;;;;;;;17.38;56.90;100135.69;2088728;28;19981;-70
2024/01/24 04:10:05;;;;;;;;;;;;;;;17.36;56.95;100135.00;2088853;28;19932;-70
2024/01/24 04:11:07;;;;;;;;;;;;;;;17.34;57.14;100138.84;2087962;28;20361;-70
2024/01/24 04:12:10;;;;;;;;;;;;;;;17.34;56.95;100131.63;2089845;28;19931;-70
2024/01/24 04:13:12;;;;;;;;;;;;;;;17.35;56.96;100135.16;2090100;28;19928;-70
2024/01/24 04:14:12;;;;;;;;;;;;;;;17.34;57.03;100136.16;2087603;28;19932;-70
2024/01/24 04:15:14;;;;;;;;;;;;;;;17.34;56.87;100133.47;2088780;28;20426;-70
2024/01/24 04:16:15;;;;;;;;;;;;;;;17.33;57.07;100134.50;2088567;28;20337;-70
2024/01/24 04:17:16;;;;;;;;;;;;;;;17.32;57.11;100138.16;2088451;28;19975;-70
2024/01/24 04:18:17;;;;;;;;;;;;;;;17.31;56.99;100136.47;2090323;28;19933;-70
2024/01/24 04:19:18;;;;;;;;;;;;;;;17.26;56.91;100133.44;2087085;28;19972;-70
2024/01/24 04:20:19;;;;;;;;;;;;;;;17.28;57.04;100134.13;2087117;28;20292;-70
2024/01/24 04:21:20;;;;;;;;;;;;;;;17.25;57.16;100127.22;2089075;28;19970;-70
2024/01/24 04:22:21;;;;;;;;;;;;;;;17.26;57.22;100131.59;2087662;28;20561;-70
2024/01/24 04:23:22;;;;;;;;;;;;;;;17.26;57.19;100128.91;2088737;28;19928;-70
2024/01/24 04:24:23;;;;;;;;;;;;;;;17.27;57.26;100129.72;2091162;28;20485;-70
2024/01/24 04:25:24;;;;;;;;;;;;;;;17.26;57.21;100125.38;2087793;28;20322;-70
2024/01/24 04:26:25;;;;;;;;;;;;;;;17.25;57.04;100137.13;2089973;28;20031;-69
2024/01/24 04:27:27;;;;;;;;;;;;;;;17.24;57.00;100136.25;2091018;28;19924;-70
2024/01/24 04:28:29;;;;;;;;;;;;;;;17.24;57.07;100130.06;2086939;28;19929;-70
2024/01/24 04:29:30;;;;;;;;;;;;;;;17.24;57.11;100124.69;2087938;28;19928;-71
2024/01/24 04:30:31;;;;;;;;;;;;;;;17.20;57.20;100124.19;2085265;28;19976;-70
2024/01/24 04:31:32;;;;;;;;;;;;;;;17.20;57.10;100129.53;2087229;28;20038;-70
2024/01/24 04:32:34;;;;;;;;;;;;;;;17.23;57.16;100128.38;2088105;28;19940;-70
2024/01/24 04:33:35;;;;;;;;;;;;;;;17.22;57.10;100127.56;2089232;28;19928;-70
2024/01/24 04:34:36;;;;;;;;;;;;;;;17.23;57.08;100128.38;2086837;28;20019;-70
2024/01/24 04:35:37;;;;;;;;;;;;;;;17.19;57.15;100123.34;2088081;28;20387;-70
2024/01/24 04:36:39;;;;;;;;;;;;;;;17.19;57.01;100134.06;2086572;28;19929;-70
2024/01/24 04:37:39;;;;;;;;;;;;;;;17.19;57.19;100130.56;2085103;28;19936;-70
2024/01/24 04:38:41;;;;;;;;;;;;;;;17.18;57.22;100126.16;2088703;28;20059;-71
2024/01/24 04:39:41;;;;;;;;;;;;;;;17.17;57.02;100130.69;2086915;28;19932;-70
2024/01/24 04:40:43;;;;;;;;;;;;;;;17.17;57.07;100125.34;2087775;28;19932;-70
2024/01/24 04:41:44;;;;;;;;;;;;;;;17.17;57.14;100136.06;2088361;28;19959;-71
2024/01/24 04:42:47;;;;;;;;;;;;;;;17.15;57.05;100138.03;2088113;28;21068;-70
2024/01/24 04:43:48;;;;;;;;;;;;;;;17.13;57.21;100140.06;2088766;28;19933;-71
2024/01/24 04:44:50;;;;;;;;;;;;;;;17.13;57.28;100140.06;2083150;28;20934;-70
2024/01/24 04:45:51;;;;;;;;;;;;;;;17.13;57.26;100145.44;2091060;28;20031;-71
2024/01/24 04:46:52;;;;;;;;;;;;;;;17.12;57.26;100135.69;2085754;28;21682;-71
2024/01/24 04:47:53;;;;;;;;;;;;;;;17.14;57.19;100139.06;2089867;28;20388;-71
2024/01/24 04:48:55;;;;;;;;;;;;;;;17.14;57.15;100139.06;2084109;28;19933;-70
2024/01/24 04:49:56;;;;;;;;;;;;;;;17.10;57.01;100137.66;2087691;28;19932;-71
2024/01/24 04:50:58;;;;;;;;;;;;;;;17.11;57.29;100139.38;2086143;28;19960;-70
2024/01/24 04:51:58;;;;;;;;;;;;;;;17.10;57.34;100132.31;2091295;28;19928;-70
2024/01/24 04:52:59;;;;;;;;;;;;;;;17.12;57.23;100135.69;2087324;28;20380;-70
2024/01/24 04:54:00;;;;;;;;;;;;;;;17.10;57.21;100136.84;2088937;28;19992;-70
2024/01/24 04:55:01;;;;;;;;;;;;;;;17.06;57.35;100132.81;2089371;28;20004;-71
2024/01/24 04:56:03;;;;;;;;;;;;;;;17.06;57.21;100130.13;2087720;28;19928;-71
2024/01/24 04:57:04;;;;;;;;;;;;;;;17.05;57.29;100134.66;2087556;28;19932;-70
2024/01/24 04:58:06;;;;;;;;;;;;;;;17.07;57.35;100135.31;2087950;28;19959;-70
2024/01/24 04:59:07;;;;;;;;;;;;;;;17.08;57.07;100145.06;2083776;28;19928;-70
2024/01/24 05:00:09;;;;;;;;;;;;;;;17.08;57.35;100137.00;2087022;28;19928;-71
2024/01/24 05:01:11;;;;;;;;;;;;;;;17.06;57.09;100128.28;2087116;28;19989;-71
2024/01/24 05:02:12;;;;;;;;;;;;;;;17.07;57.08;100135.31;2087907;28;19929;-71
2024/01/24 05:03:12;;;;;;;;;;;;;;;17.07;57.13;100134.47;2088847;28;20011;-71
2024/01/24 05:04:14;;;;;;;;;;;;;;;17.07;57.32;100142.50;2088527;28;20005;-70
2024/01/24 05:05:15;;;;;;;;;;;;;;;17.06;57.18;100141.69;2083437;28;21002;-70
2024/01/24 05:06:16;;;;;;;;;;;;;;;17.05;57.33;100139.13;2089532;28;19936;-70
2024/01/24 05:07:17;;;;;;;;;;;;;;;17.05;57.24;100142.69;2088740;28;19936;-71
2024/01/24 05:08:18;;;;;;;;;;;;;;;17.04;57.34;100140.16;2084868;28;19925;-70
2024/01/24 05:09:19;;;;;;;;;;;;;;;17.02;57.20;100139.47;2085745;28;20015;-70
2024/01/24 05:10:20;;;;;;;;;;;;;;;17.01;57.24;100141.31;2087375;28;19933;-70
2024/01/24 05:11:22;;;;;;;;;;;;;;;17.02;57.27;100134.97;2088864;28;19978;-70
2024/01/24 05:12:23;;;;;;;;;;;;;;;17.02;57.23;100148.38;2083701;28;20391;-70
2024/01/24 05:13:26;;;;;;;;;;;;;;;17.00;57.46;100141.47;2084912;28;20038;-70
2024/01/24 05:14:26;;;;;;;;;;;;;;;17.00;57.28;100139.63;2089201;28;19969;-70